This is the latest recevied weather packets stored in our database for station/object OE-11373. If no packets are shown the sender has not sent any weather packets the latest 10 day(s).
| Time | Temp. | Humidity | Pressure | Rain* | Wind** | Luminosity | Snow |
|---|---|---|---|---|---|---|---|
| 1787836286 | 23.33° C | 66% | 853.4 hPa | - | - | - | - |
| 1787835912 | 23.89° C | 64% | 853.4 hPa | - | - | - | - |
| 1787835313 | 23.33° C | 67% | 853.4 hPa | - | - | - | - |
| 1787834486 | 23.33° C | 65% | 853.5 hPa | - | - | - | - |
| 1787834112 | 22.78° C | 68% | 853.4 hPa | - | - | - | - |
| 1787833513 | 23.33° C | 67% | 853.6 hPa | - | - | - | - |
| 1787832686 | 23.33° C | 66% | 853.5 hPa | - | - | - | - |
| 1787832313 | 23.89° C | 65% | 853.7 hPa | - | - | - | - |
| 1787831712 | 22.78° C | 70% | 853.6 hPa | - | - | - | - |
| 1787830886 | 23.33° C | 64% | 853.7 hPa | - | - | - | - |
| 1787830512 | 23.33° C | 64% | 853.7 hPa | - | - | - | - |
| 1787829912 | 23.33° C | 62% | 853.7 hPa | - | - | - | - |
| 1787829086 | 23.33° C | 64% | 853.6 hPa | - | - | - | - |
| 1787828713 | 23.33° C | 67% | 853.7 hPa | - | - | - | - |
| 1787828113 | 23.33° C | 63% | 853.9 hPa | - | - | - | - |
| 1787827285 | 23.33° C | 61% | 853.9 hPa | - | - | - | - |
| 1787826912 | 23.89° C | 59% | 853.9 hPa | - | - | - | - |
| 1787826313 | 23.33° C | 55% | 853.8 hPa | - | - | - | - |
| 1787825486 | 22.78° C | 57% | 853.5 hPa | - | - | - | - |
| 1787825113 | 22.78° C | 54% | 853.4 hPa | - | - | - | - |
| 1787824513 | 23.33° C | 57% | 853.4 hPa | - | - | - | - |
| 1787823686 | 22.78° C | 56% | 853.4 hPa | - | - | - | - |
| 1787823313 | 22.78° C | 56% | 853.2 hPa | - | - | - | - |
| 1787822712 | 22.78° C | 55% | 853.3 hPa | - | - | - | - |
| 1787821886 | 22.22° C | 54% | 853.3 hPa | - | - | - | - |
* Rain since midnight (hover to see other rain measurements)
** Current wind speed in m/s (hover to see current wind gust speed)